aviador You're here:

KEEO Decoded Metar

MEEKER in CO, USA
Report Time2018-07-22 15:53:00
UTC Time2018-07-22 16:18:28
Flight Rules vfr VFR
WindVRB at 03 kt
Visibility9999 m
Phenomena:N/A
Clouds:N/A
Expected CloudBase > 6,400 ft AGL from Temp-Dew spread
CeilingNone
Temp26°C (ISA +24)
Dew Point10°C (37% RH)
AAT25.0°C
QNH1027 hPa
Density Alt8,717 ft
Elevation6,332 ft
Report Wrong Elevation
Raw Report
KEEO 221553Z AUTO VRB03KT 10SM CLR 26/10 A3033 RMK AO2 SLP170
T02560100=

Extra information for KEEO:More info

Metar Taf Metar & Taf Last 4 Metars F.Rules Stats Wind Profile Meteogram Temp Stats Airport Information Weather charts Add Link Nearby VenuesMetar ALERT Operation Metar Decoded Social comments

AIRNAV info for KEEO